sensor_id;sensor_type;location;lat;lon;timestamp;temperature;humidity
26099;DHT22;13860;52.370;6.764;2023-11-19T00:02:07;12.10;94.80
26099;DHT22;13860;52.370;6.764;2023-11-19T00:05:13;12.10;94.70
26099;DHT22;13860;52.370;6.764;2023-11-19T00:08:20;12.10;95.20
26099;DHT22;13860;52.370;6.764;2023-11-19T00:11:27;12.10;93.10
26099;DHT22;13860;52.370;6.764;2023-11-19T00:14:37;12.00;92.10
26099;DHT22;13860;52.370;6.764;2023-11-19T00:17:45;12.00;92.10
26099;DHT22;13860;52.370;6.764;2023-11-19T00:20:53;12.10;92.10
26099;DHT22;13860;52.370;6.764;2023-11-19T00:23:59;12.10;92.10
26099;DHT22;13860;52.370;6.764;2023-11-19T00:27:06;12.20;92.10
26099;DHT22;13860;52.370;6.764;2023-11-19T00:30:15;12.20;92.10
26099;DHT22;13860;52.370;6.764;2023-11-19T00:33:22;12.20;92.10
26099;DHT22;13860;52.370;6.764;2023-11-19T00:36:28;12.30;92.10
26099;DHT22;13860;52.370;6.764;2023-11-19T00:39:36;12.30;92.10
26099;DHT22;13860;52.370;6.764;2023-11-19T00:42:41;12.30;92.20
26099;DHT22;13860;52.370;6.764;2023-11-19T00:45:51;12.30;92.20
26099;DHT22;13860;52.370;6.764;2023-11-19T00:48:56;12.40;92.10
26099;DHT22;13860;52.370;6.764;2023-11-19T00:52:05;12.40;92.10
26099;DHT22;13860;52.370;6.764;2023-11-19T00:55:12;12.40;92.10
26099;DHT22;13860;52.370;6.764;2023-11-19T00:58:19;12.50;92.10
26099;DHT22;13860;52.370;6.764;2023-11-19T01:01:27;12.50;92.10
26099;DHT22;13860;52.370;6.764;2023-11-19T01:04:35;12.50;92.20
26099;DHT22;13860;52.370;6.764;2023-11-19T01:07:41;12.60;92.40
26099;DHT22;13860;52.370;6.764;2023-11-19T01:10:48;12.60;92.10
26099;DHT22;13860;52.370;6.764;2023-11-19T01:13:54;12.60;92.20
26099;DHT22;13860;52.370;6.764;2023-11-19T01:17:04;12.70;92.20
26099;DHT22;13860;52.370;6.764;2023-11-19T01:20:11;12.70;92.20
26099;DHT22;13860;52.370;6.764;2023-11-19T01:23:19;12.70;92.20
26099;DHT22;13860;52.370;6.764;2023-11-19T01:26:24;12.80;92.20
26099;DHT22;13860;52.370;6.764;2023-11-19T01:29:31;13.20;92.30
26099;DHT22;13860;52.370;6.764;2023-11-19T01:32:40;12.80;92.20
26099;DHT22;13860;52.370;6.764;2023-11-19T01:35:47;12.90;92.20
26099;DHT22;13860;52.370;6.764;2023-11-19T01:38:53;12.90;92.20
26099;DHT22;13860;52.370;6.764;2023-11-19T01:42:00;12.90;92.20
26099;DHT22;13860;52.370;6.764;2023-11-19T01:45:07;12.90;92.20
26099;DHT22;13860;52.370;6.764;2023-11-19T01:48:17;12.90;92.20
26099;DHT22;13860;52.370;6.764;2023-11-19T01:51:23;13.00;92.60
26099;DHT22;13860;52.370;6.764;2023-11-19T01:54:31;13.00;92.40
26099;DHT22;13860;52.370;6.764;2023-11-19T01:57:37;13.10;93.30
26099;DHT22;13860;52.370;6.764;2023-11-19T02:00:46;13.40;92.60
26099;DHT22;13860;52.370;6.764;2023-11-19T02:03:54;13.10;92.30
26099;DHT22;13860;52.370;6.764;2023-11-19T02:07:03;13.10;92.30
26099;DHT22;13860;52.370;6.764;2023-11-19T02:10:10;13.10;92.30
26099;DHT22;13860;52.370;6.764;2023-11-19T02:13:19;13.20;92.30
26099;DHT22;13860;52.370;6.764;2023-11-19T02:16:24;13.10;92.30
26099;DHT22;13860;52.370;6.764;2023-11-19T02:19:35;13.20;92.30
26099;DHT22;13860;52.370;6.764;2023-11-19T02:22:40;13.20;92.30
26099;DHT22;13860;52.370;6.764;2023-11-19T02:26:00;13.20;92.30
26099;DHT22;13860;52.370;6.764;2023-11-19T02:29:10;13.20;92.40
26099;DHT22;13860;52.370;6.764;2023-11-19T02:32:18;13.30;92.40
26099;DHT22;13860;52.370;6.764;2023-11-19T02:35:27;13.20;92.30
26099;DHT22;13860;52.370;6.764;2023-11-19T02:38:34;13.30;92.30
26099;DHT22;13860;52.370;6.764;2023-11-19T02:41:41;13.30;92.30
26099;DHT22;13860;52.370;6.764;2023-11-19T02:44:50;13.30;92.40
26099;DHT22;13860;52.370;6.764;2023-11-19T02:47:57;13.30;92.40
26099;DHT22;13860;52.370;6.764;2023-11-19T02:51:04;13.30;92.30
26099;DHT22;13860;52.370;6.764;2023-11-19T02:54:14;13.30;92.30
26099;DHT22;13860;52.370;6.764;2023-11-19T02:57:20;13.30;92.30
26099;DHT22;13860;52.370;6.764;2023-11-19T03:00:32;13.30;92.40
26099;DHT22;13860;52.370;6.764;2023-11-19T03:03:39;13.30;92.40
26099;DHT22;13860;52.370;6.764;2023-11-19T03:06:47;13.30;92.30
26099;DHT22;13860;52.370;6.764;2023-11-19T03:09:53;13.30;92.50
26099;DHT22;13860;52.370;6.764;2023-11-19T03:13:01;13.40;92.50
26099;DHT22;13860;52.370;6.764;2023-11-19T03:16:09;13.40;92.50
26099;DHT22;13860;52.370;6.764;2023-11-19T03:19:18;13.40;92.60
26099;DHT22;13860;52.370;6.764;2023-11-19T03:22:27;13.40;92.60
26099;DHT22;13860;52.370;6.764;2023-11-19T03:25:35;13.30;92.80
26099;DHT22;13860;52.370;6.764;2023-11-19T03:28:40;13.50;92.90
26099;DHT22;13860;52.370;6.764;2023-11-19T03:31:50;13.40;92.80
26099;DHT22;13860;52.370;6.764;2023-11-19T03:34:56;13.40;93.40
26099;DHT22;13860;52.370;6.764;2023-11-19T03:38:05;13.40;93.60
26099;DHT22;13860;52.370;6.764;2023-11-19T03:41:11;13.30;92.20
26099;DHT22;13860;52.370;6.764;2023-11-19T03:44:18;13.30;92.20
26099;DHT22;13860;52.370;6.764;2023-11-19T03:47:27;13.30;92.20
26099;DHT22;13860;52.370;6.764;2023-11-19T03:50:34;13.30;92.20
26099;DHT22;13860;52.370;6.764;2023-11-19T03:53:40;13.20;92.20
26099;DHT22;13860;52.370;6.764;2023-11-19T03:56:47;13.20;92.20
26099;DHT22;13860;52.370;6.764;2023-11-19T03:59:53;13.20;92.20
26099;DHT22;13860;52.370;6.764;2023-11-19T04:03:03;13.20;92.30
26099;DHT22;13860;52.370;6.764;2023-11-19T04:06:08;13.30;92.50
26099;DHT22;13860;52.370;6.764;2023-11-19T04:09:16;13.20;93.00
26099;DHT22;13860;52.370;6.764;2023-11-19T04:12:22;13.20;92.30
26099;DHT22;13860;52.370;6.764;2023-11-19T04:15:29;13.10;92.30
26099;DHT22;13860;52.370;6.764;2023-11-19T04:18:37;13.10;92.30
26099;DHT22;13860;52.370;6.764;2023-11-19T04:21:45;13.30;92.40
26099;DHT22;13860;52.370;6.764;2023-11-19T04:24:50;13.10;92.10
26099;DHT22;13860;52.370;6.764;2023-11-19T04:27:59;13.10;92.10
26099;DHT22;13860;52.370;6.764;2023-11-19T04:31:05;12.90;92.10
26099;DHT22;13860;52.370;6.764;2023-11-19T04:34:16;13.00;92.10
26099;DHT22;13860;52.370;6.764;2023-11-19T04:37:22;12.80;93.30
26099;DHT22;13860;52.370;6.764;2023-11-19T04:40:29;12.90;92.10
26099;DHT22;13860;52.370;6.764;2023-11-19T04:43:36;12.90;92.00
26099;DHT22;13860;52.370;6.764;2023-11-19T04:46:44;12.90;92.00
26099;DHT22;13860;52.370;6.764;2023-11-19T04:49:53;12.80;92.00
26099;DHT22;13860;52.370;6.764;2023-11-19T04:53:00;12.80;92.00
26099;DHT22;13860;52.370;6.764;2023-11-19T04:56:09;12.80;92.00
26099;DHT22;13860;52.370;6.764;2023-11-19T04:59:17;12.70;91.90
26099;DHT22;13860;52.370;6.764;2023-11-19T05:02:23;12.70;91.90
26099;DHT22;13860;52.370;6.764;2023-11-19T05:05:33;12.60;91.90
26099;DHT22;13860;52.370;6.764;2023-11-19T05:08:38;12.60;91.90
26099;DHT22;13860;52.370;6.764;2023-11-19T05:11:46;12.60;92.30
26099;DHT22;13860;52.370;6.764;2023-11-19T05:14:53;12.50;91.90
26099;DHT22;13860;52.370;6.764;2023-11-19T05:18:01;12.50;92.00
26099;DHT22;13860;52.370;6.764;2023-11-19T05:21:10;12.50;92.00
26099;DHT22;13860;52.370;6.764;2023-11-19T05:24:17;12.50;92.00
26099;DHT22;13860;52.370;6.764;2023-11-19T05:27:22;12.50;92.00
26099;DHT22;13860;52.370;6.764;2023-11-19T05:30:31;12.50;92.00
26099;DHT22;13860;52.370;6.764;2023-11-19T05:33:36;12.50;92.00
26099;DHT22;13860;52.370;6.764;2023-11-19T05:36:46;12.50;92.00
26099;DHT22;13860;52.370;6.764;2023-11-19T05:39:52;12.50;92.00
26099;DHT22;13860;52.370;6.764;2023-11-19T05:42:59;12.50;91.90
26099;DHT22;13860;52.370;6.764;2023-11-19T05:46:05;12.50;91.90
26099;DHT22;13860;52.370;6.764;2023-11-19T05:49:16;12.50;91.90
26099;DHT22;13860;52.370;6.764;2023-11-19T05:52:24;12.50;91.90
26099;DHT22;13860;52.370;6.764;2023-11-19T05:55:33;12.50;91.90
26099;DHT22;13860;52.370;6.764;2023-11-19T05:58:47;12.50;91.90
26099;DHT22;13860;52.370;6.764;2023-11-19T06:01:55;12.50;91.90
26099;DHT22;13860;52.370;6.764;2023-11-19T06:05:02;12.50;91.90
26099;DHT22;13860;52.370;6.764;2023-11-19T06:08:13;12.50;91.80
26099;DHT22;13860;52.370;6.764;2023-11-19T06:11:18;12.50;91.80
26099;DHT22;13860;52.370;6.764;2023-11-19T06:14:28;12.50;91.80
26099;DHT22;13860;52.370;6.764;2023-11-19T06:17:33;12.50;91.80
26099;DHT22;13860;52.370;6.764;2023-11-19T06:20:41;12.50;91.80
26099;DHT22;13860;52.370;6.764;2023-11-19T06:23:49;12.50;91.80
26099;DHT22;13860;52.370;6.764;2023-11-19T06:26:58;12.50;91.80
26099;DHT22;13860;52.370;6.764;2023-11-19T06:30:04;12.40;91.70
26099;DHT22;13860;52.370;6.764;2023-11-19T06:33:12;12.50;91.70
26099;DHT22;13860;52.370;6.764;2023-11-19T06:36:18;12.50;91.70
26099;DHT22;13860;52.370;6.764;2023-11-19T06:39:28;12.40;91.70
26099;DHT22;13860;52.370;6.764;2023-11-19T06:42:33;12.40;91.90
26099;DHT22;13860;52.370;6.764;2023-11-19T06:45:41;12.40;91.70
26099;DHT22;13860;52.370;6.764;2023-11-19T06:48:46;12.40;91.70
26099;DHT22;13860;52.370;6.764;2023-11-19T06:51:54;12.40;91.60
26099;DHT22;13860;52.370;6.764;2023-11-19T06:55:02;12.40;91.70
26099;DHT22;13860;52.370;6.764;2023-11-19T06:58:12;12.40;91.60
26099;DHT22;13860;52.370;6.764;2023-11-19T07:01:18;12.40;91.60
26099;DHT22;13860;52.370;6.764;2023-11-19T07:04:25;12.40;91.80
26099;DHT22;13860;52.370;6.764;2023-11-19T07:07:30;12.40;91.50
26099;DHT22;13860;52.370;6.764;2023-11-19T07:10:42;12.30;91.50
26099;DHT22;13860;52.370;6.764;2023-11-19T07:13:49;12.30;91.50
26099;DHT22;13860;52.370;6.764;2023-11-19T07:16:57;12.30;91.50
26099;DHT22;13860;52.370;6.764;2023-11-19T07:20:03;12.30;91.50
26099;DHT22;13860;52.370;6.764;2023-11-19T07:23:10;12.20;91.50
26099;DHT22;13860;52.370;6.764;2023-11-19T07:26:21;12.20;91.60
26099;DHT22;13860;52.370;6.764;2023-11-19T07:29:29;12.30;91.60
26099;DHT22;13860;52.370;6.764;2023-11-19T07:32:34;12.00;91.60
26099;DHT22;13860;52.370;6.764;2023-11-19T07:35:43;12.20;91.50
26099;DHT22;13860;52.370;6.764;2023-11-19T07:38:48;12.20;91.50
26099;DHT22;13860;52.370;6.764;2023-11-19T07:41:58;12.20;91.50
26099;DHT22;13860;52.370;6.764;2023-11-19T07:45:05;12.20;91.50
26099;DHT22;13860;52.370;6.764;2023-11-19T07:48:13;12.20;91.50
26099;DHT22;13860;52.370;6.764;2023-11-19T07:51:20;12.20;91.50
26099;DHT22;13860;52.370;6.764;2023-11-19T07:54:27;12.20;91.50
26099;DHT22;13860;52.370;6.764;2023-11-19T07:57:35;12.20;91.50
26099;DHT22;13860;52.370;6.764;2023-11-19T08:00:43;12.20;91.50
26099;DHT22;13860;52.370;6.764;2023-11-19T08:03:48;12.20;91.50
26099;DHT22;13860;52.370;6.764;2023-11-19T08:06:59;12.20;91.40
26099;DHT22;13860;52.370;6.764;2023-11-19T08:10:05;12.20;91.40
26099;DHT22;13860;52.370;6.764;2023-11-19T08:13:17;12.20;91.40
26099;DHT22;13860;52.370;6.764;2023-11-19T08:16:23;12.30;91.50
26099;DHT22;13860;52.370;6.764;2023-11-19T08:19:30;12.30;91.50
26099;DHT22;13860;52.370;6.764;2023-11-19T08:22:36;12.30;91.40
26099;DHT22;13860;52.370;6.764;2023-11-19T08:25:43;12.30;91.40
26099;DHT22;13860;52.370;6.764;2023-11-19T08:28:52;12.30;91.40
26099;DHT22;13860;52.370;6.764;2023-11-19T08:32:00;12.30;91.40
26099;DHT22;13860;52.370;6.764;2023-11-19T08:35:06;12.40;91.40
26099;DHT22;13860;52.370;6.764;2023-11-19T08:38:15;12.40;91.40
26099;DHT22;13860;52.370;6.764;2023-11-19T08:41:33;12.40;91.40
26099;DHT22;13860;52.370;6.764;2023-11-19T08:44:49;12.50;91.40
26099;DHT22;13860;52.370;6.764;2023-11-19T08:47:56;12.50;91.40
26099;DHT22;13860;52.370;6.764;2023-11-19T08:51:05;12.50;91.40
26099;DHT22;13860;52.370;6.764;2023-11-19T08:54:10;12.50;91.40
26099;DHT22;13860;52.370;6.764;2023-11-19T08:57:18;12.50;91.30
26099;DHT22;13860;52.370;6.764;2023-11-19T09:00:26;12.50;91.30
26099;DHT22;13860;52.370;6.764;2023-11-19T09:03:34;12.60;91.30
26099;DHT22;13860;52.370;6.764;2023-11-19T09:06:39;12.60;91.30
26099;DHT22;13860;52.370;6.764;2023-11-19T09:09:48;12.60;91.30
26099;DHT22;13860;52.370;6.764;2023-11-19T09:12:53;12.70;91.30
26099;DHT22;13860;52.370;6.764;2023-11-19T09:16:05;12.70;91.30
26099;DHT22;13860;52.370;6.764;2023-11-19T09:19:11;12.80;91.30
26099;DHT22;13860;52.370;6.764;2023-11-19T09:22:18;12.80;91.30
26099;DHT22;13860;52.370;6.764;2023-11-19T09:25:24;12.80;91.30
26099;DHT22;13860;52.370;6.764;2023-11-19T09:28:48;12.90;91.30
26099;DHT22;13860;52.370;6.764;2023-11-19T09:31:56;12.90;91.20
26099;DHT22;13860;52.370;6.764;2023-11-19T09:35:05;12.90;91.20
26099;DHT22;13860;52.370;6.764;2023-11-19T09:38:11;13.00;91.10
26099;DHT22;13860;52.370;6.764;2023-11-19T09:41:18;13.00;91.10
26099;DHT22;13860;52.370;6.764;2023-11-19T09:44:24;13.00;91.10
26099;DHT22;13860;52.370;6.764;2023-11-19T09:47:35;13.10;91.10
26099;DHT22;13860;52.370;6.764;2023-11-19T09:50:40;13.10;91.00
26099;DHT22;13860;52.370;6.764;2023-11-19T09:53:48;13.10;91.00
26099;DHT22;13860;52.370;6.764;2023-11-19T09:56:55;13.10;91.00
26099;DHT22;13860;52.370;6.764;2023-11-19T10:00:08;13.20;91.00
26099;DHT22;13860;52.370;6.764;2023-11-19T10:03:19;13.20;90.90
26099;DHT22;13860;52.370;6.764;2023-11-19T10:06:26;13.20;90.90
26099;DHT22;13860;52.370;6.764;2023-11-19T10:09:32;13.20;90.90
26099;DHT22;13860;52.370;6.764;2023-11-19T10:12:39;13.20;90.90
26099;DHT22;13860;52.370;6.764;2023-11-19T10:15:48;13.20;90.90
26099;DHT22;13860;52.370;6.764;2023-11-19T10:18:59;13.30;90.90
26099;DHT22;13860;52.370;6.764;2023-11-19T10:22:05;13.30;90.80
26099;DHT22;13860;52.370;6.764;2023-11-19T10:25:25;13.30;90.80
26099;DHT22;13860;52.370;6.764;2023-11-19T10:28:39;13.30;90.80
26099;DHT22;13860;52.370;6.764;2023-11-19T10:31:56;13.40;90.80
26099;DHT22;13860;52.370;6.764;2023-11-19T10:35:24;13.40;91.20
26099;DHT22;13860;52.370;6.764;2023-11-19T10:38:31;13.50;91.00
26099;DHT22;13860;52.370;6.764;2023-11-19T10:41:37;13.40;90.90
26099;DHT22;13860;52.370;6.764;2023-11-19T10:44:45;13.50;91.10
26099;DHT22;13860;52.370;6.764;2023-11-19T10:47:51;13.50;91.00
26099;DHT22;13860;52.370;6.764;2023-11-19T10:51:05;13.50;90.70
26099;DHT22;13860;52.370;6.764;2023-11-19T10:54:15;13.50;90.60
26099;DHT22;13860;52.370;6.764;2023-11-19T10:57:30;13.60;90.60
26099;DHT22;13860;52.370;6.764;2023-11-19T11:00:38;13.60;90.60
26099;DHT22;13860;52.370;6.764;2023-11-19T11:03:46;13.60;90.60
26099;DHT22;13860;52.370;6.764;2023-11-19T11:06:58;13.70;90.60
26099;DHT22;13860;52.370;6.764;2023-11-19T11:10:08;13.70;90.50
26099;DHT22;13860;52.370;6.764;2023-11-19T11:13:14;13.70;90.50
26099;DHT22;13860;52.370;6.764;2023-11-19T11:16:22;13.80;90.50
26099;DHT22;13860;52.370;6.764;2023-11-19T11:19:29;13.80;90.50
26099;DHT22;13860;52.370;6.764;2023-11-19T11:22:47;13.80;90.40
26099;DHT22;13860;52.370;6.764;2023-11-19T11:26:03;13.90;90.30
26099;DHT22;13860;52.370;6.764;2023-11-19T11:29:20;13.90;90.30
26099;DHT22;13860;52.370;6.764;2023-11-19T11:32:33;13.90;90.30
26099;DHT22;13860;52.370;6.764;2023-11-19T11:35:50;13.90;90.20
26099;DHT22;13860;52.370;6.764;2023-11-19T11:39:01;13.90;90.20
26099;DHT22;13860;52.370;6.764;2023-11-19T11:42:31;13.90;90.20
26099;DHT22;13860;52.370;6.764;2023-11-19T11:45:38;13.90;90.10
26099;DHT22;13860;52.370;6.764;2023-11-19T11:48:48;13.90;90.20
26099;DHT22;13860;52.370;6.764;2023-11-19T11:51:58;13.90;90.10
26099;DHT22;13860;52.370;6.764;2023-11-19T11:55:11;13.90;90.10
26099;DHT22;13860;52.370;6.764;2023-11-19T11:58:17;13.90;90.10
26099;DHT22;13860;52.370;6.764;2023-11-19T12:01:25;13.90;90.10
26099;DHT22;13860;52.370;6.764;2023-11-19T12:04:32;13.90;90.00
26099;DHT22;13860;52.370;6.764;2023-11-19T12:07:54;13.90;90.00
26099;DHT22;13860;52.370;6.764;2023-11-19T12:11:04;13.90;89.90
26099;DHT22;13860;52.370;6.764;2023-11-19T12:14:13;13.90;89.90
26099;DHT22;13860;52.370;6.764;2023-11-19T12:17:43;13.90;89.80
26099;DHT22;13860;52.370;6.764;2023-11-19T12:20:54;13.80;89.60
26099;DHT22;13860;52.370;6.764;2023-11-19T12:24:03;13.80;89.80
26099;DHT22;13860;52.370;6.764;2023-11-19T12:27:15;13.80;89.70
26099;DHT22;13860;52.370;6.764;2023-11-19T12:30:22;13.80;89.60
26099;DHT22;13860;52.370;6.764;2023-11-19T12:33:31;13.80;89.70
26099;DHT22;13860;52.370;6.764;2023-11-19T12:36:37;13.80;89.60
26099;DHT22;13860;52.370;6.764;2023-11-19T12:39:45;13.70;89.70
26099;DHT22;13860;52.370;6.764;2023-11-19T12:42:55;13.70;89.50
26099;DHT22;13860;52.370;6.764;2023-11-19T12:46:03;13.60;89.50
26099;DHT22;13860;52.370;6.764;2023-11-19T12:49:11;13.60;89.60
26099;DHT22;13860;52.370;6.764;2023-11-19T12:52:18;13.50;89.60
26099;DHT22;13860;52.370;6.764;2023-11-19T12:55:27;13.50;89.70
26099;DHT22;13860;52.370;6.764;2023-11-19T12:58:39;13.50;89.80
26099;DHT22;13860;52.370;6.764;2023-11-19T13:01:54;13.40;89.70
26099;DHT22;13860;52.370;6.764;2023-11-19T13:05:21;13.40;89.70
26099;DHT22;13860;52.370;6.764;2023-11-19T13:08:26;13.40;89.60
26099;DHT22;13860;52.370;6.764;2023-11-19T13:11:34;13.40;89.80
26099;DHT22;13860;52.370;6.764;2023-11-19T13:14:45;13.30;89.90
26099;DHT22;13860;52.370;6.764;2023-11-19T13:17:54;13.30;89.90
26099;DHT22;13860;52.370;6.764;2023-11-19T13:21:00;13.30;89.90
26099;DHT22;13860;52.370;6.764;2023-11-19T13:24:07;13.30;90.00
26099;DHT22;13860;52.370;6.764;2023-11-19T13:27:13;13.30;90.00
26099;DHT22;13860;52.370;6.764;2023-11-19T13:30:24;13.20;90.00
26099;DHT22;13860;52.370;6.764;2023-11-19T13:33:30;13.20;90.00
26099;DHT22;13860;52.370;6.764;2023-11-19T13:36:38;13.20;90.00
26099;DHT22;13860;52.370;6.764;2023-11-19T13:39:43;13.20;90.10
26099;DHT22;13860;52.370;6.764;2023-11-19T13:42:50;13.20;90.00
26099;DHT22;13860;52.370;6.764;2023-11-19T13:45:58;13.20;90.00
26099;DHT22;13860;52.370;6.764;2023-11-19T13:49:06;13.20;90.00
26099;DHT22;13860;52.370;6.764;2023-11-19T13:52:12;13.10;90.00
26099;DHT22;13860;52.370;6.764;2023-11-19T13:55:20;13.10;90.00
26099;DHT22;13860;52.370;6.764;2023-11-19T13:58:25;13.10;90.10
26099;DHT22;13860;52.370;6.764;2023-11-19T14:01:36;13.10;90.10
26099;DHT22;13860;52.370;6.764;2023-11-19T14:04:41;13.10;90.10
26099;DHT22;13860;52.370;6.764;2023-11-19T14:07:49;13.10;90.10
26099;DHT22;13860;52.370;6.764;2023-11-19T14:10:54;13.70;90.30
26099;DHT22;13860;52.370;6.764;2023-11-19T14:14:04;13.10;90.60
26099;DHT22;13860;52.370;6.764;2023-11-19T14:17:13;13.10;90.20
26099;DHT22;13860;52.370;6.764;2023-11-19T14:20:20;13.10;90.20
26099;DHT22;13860;52.370;6.764;2023-11-19T14:23:26;13.20;91.00
26099;DHT22;13860;52.370;6.764;2023-11-19T14:26:34;13.00;90.30
26099;DHT22;13860;52.370;6.764;2023-11-19T14:29:39;13.00;90.20
26099;DHT22;13860;52.370;6.764;2023-11-19T14:32:50;13.00;90.20
26099;DHT22;13860;52.370;6.764;2023-11-19T14:35:56;13.00;90.20
26099;DHT22;13860;52.370;6.764;2023-11-19T14:39:03;13.00;90.10
26099;DHT22;13860;52.370;6.764;2023-11-19T14:42:09;13.00;90.10
26099;DHT22;13860;52.370;6.764;2023-11-19T14:45:18;13.00;90.10
26099;DHT22;13860;52.370;6.764;2023-11-19T14:48:26;13.00;90.10
26099;DHT22;13860;52.370;6.764;2023-11-19T14:51:35;13.00;90.20
26099;DHT22;13860;52.370;6.764;2023-11-19T14:54:41;12.90;90.10
26099;DHT22;13860;52.370;6.764;2023-11-19T14:57:49;13.00;90.20
26099;DHT22;13860;52.370;6.764;2023-11-19T15:01:11;12.90;90.10
26099;DHT22;13860;52.370;6.764;2023-11-19T15:04:22;12.90;90.10
26099;DHT22;13860;52.370;6.764;2023-11-19T15:07:28;12.90;90.20
26099;DHT22;13860;52.370;6.764;2023-11-19T15:10:35;12.90;90.20
26099;DHT22;13860;52.370;6.764;2023-11-19T15:13:41;12.90;90.20
26099;DHT22;13860;52.370;6.764;2023-11-19T15:16:50;12.90;90.20
26099;DHT22;13860;52.370;6.764;2023-11-19T15:19:59;12.90;90.20
26099;DHT22;13860;52.370;6.764;2023-11-19T15:23:07;12.80;90.30
26099;DHT22;13860;52.370;6.764;2023-11-19T15:26:12;12.80;90.20
26099;DHT22;13860;52.370;6.764;2023-11-19T15:29:20;12.80;90.20
26099;DHT22;13860;52.370;6.764;2023-11-19T15:32:25;12.80;90.20
26099;DHT22;13860;52.370;6.764;2023-11-19T15:35:38;12.80;90.30
26099;DHT22;13860;52.370;6.764;2023-11-19T15:38:45;13.00;90.30
26099;DHT22;13860;52.370;6.764;2023-11-19T15:41:56;12.70;90.30
26099;DHT22;13860;52.370;6.764;2023-11-19T15:45:02;12.70;90.30
26099;DHT22;13860;52.370;6.764;2023-11-19T15:48:11;12.70;90.30
26099;DHT22;13860;52.370;6.764;2023-11-19T15:51:19;12.70;90.40
26099;DHT22;13860;52.370;6.764;2023-11-19T15:54:27;12.70;90.40
26099;DHT22;13860;52.370;6.764;2023-11-19T15:57:32;12.70;90.40
26099;DHT22;13860;52.370;6.764;2023-11-19T16:00:40;12.60;90.30
26099;DHT22;13860;52.370;6.764;2023-11-19T16:03:48;12.60;90.40
26099;DHT22;13860;52.370;6.764;2023-11-19T16:06:59;12.60;90.40
26099;DHT22;13860;52.370;6.764;2023-11-19T16:10:06;12.80;90.40
26099;DHT22;13860;52.370;6.764;2023-11-19T16:13:16;12.70;90.40
26099;DHT22;13860;52.370;6.764;2023-11-19T16:16:21;12.60;90.40
26099;DHT22;13860;52.370;6.764;2023-11-19T16:19:29;12.60;90.40
26099;DHT22;13860;52.370;6.764;2023-11-19T16:22:39;12.60;90.40
26099;DHT22;13860;52.370;6.764;2023-11-19T16:25:47;12.60;90.40
26099;DHT22;13860;52.370;6.764;2023-11-19T16:28:52;12.60;90.40
26099;DHT22;13860;52.370;6.764;2023-11-19T16:32:01;12.60;90.50
26099;DHT22;13860;52.370;6.764;2023-11-19T16:35:07;12.60;90.50
26099;DHT22;13860;52.370;6.764;2023-11-19T16:38:17;12.60;90.50
26099;DHT22;13860;52.370;6.764;2023-11-19T16:41:23;12.60;90.50
26099;DHT22;13860;52.370;6.764;2023-11-19T16:44:45;12.60;90.50
26099;DHT22;13860;52.370;6.764;2023-11-19T16:47:50;12.70;91.30
26099;DHT22;13860;52.370;6.764;2023-11-19T16:50:58;12.60;90.60
26099;DHT22;13860;52.370;6.764;2023-11-19T16:54:08;12.60;90.50
26099;DHT22;13860;52.370;6.764;2023-11-19T16:57:17;12.60;90.60
26099;DHT22;13860;52.370;6.764;2023-11-19T17:00:24;12.60;90.80
26099;DHT22;13860;52.370;6.764;2023-11-19T17:03:32;12.40;90.40
26099;DHT22;13860;52.370;6.764;2023-11-19T17:06:38;12.50;90.40
26099;DHT22;13860;52.370;6.764;2023-11-19T17:09:48;12.50;90.40
26099;DHT22;13860;52.370;6.764;2023-11-19T17:12:53;12.50;90.40
26099;DHT22;13860;52.370;6.764;2023-11-19T17:16:01;12.50;90.50
26099;DHT22;13860;52.370;6.764;2023-11-19T17:19:09;12.50;90.50
26099;DHT22;13860;52.370;6.764;2023-11-19T17:22:17;12.50;90.50
26099;DHT22;13860;52.370;6.764;2023-11-19T17:25:24;12.50;90.50
26099;DHT22;13860;52.370;6.764;2023-11-19T17:28:32;12.50;90.50
26099;DHT22;13860;52.370;6.764;2023-11-19T17:31:38;12.50;90.50
26099;DHT22;13860;52.370;6.764;2023-11-19T17:34:46;12.50;90.50
26099;DHT22;13860;52.370;6.764;2023-11-19T17:37:51;12.50;90.50
26099;DHT22;13860;52.370;6.764;2023-11-19T17:41:02;13.00;90.60
26099;DHT22;13860;52.370;6.764;2023-11-19T17:44:07;12.50;90.40
26099;DHT22;13860;52.370;6.764;2023-11-19T17:47:15;12.50;90.50
26099;DHT22;13860;52.370;6.764;2023-11-19T17:50:20;12.50;90.50
26099;DHT22;13860;52.370;6.764;2023-11-19T17:53:30;12.50;90.50
26099;DHT22;13860;52.370;6.764;2023-11-19T17:56:40;12.40;90.40
26099;DHT22;13860;52.370;6.764;2023-11-19T17:59:48;12.50;90.50
26099;DHT22;13860;52.370;6.764;2023-11-19T18:02:54;12.40;90.50
26099;DHT22;13860;52.370;6.764;2023-11-19T18:06:06;12.50;90.50
26099;DHT22;13860;52.370;6.764;2023-11-19T18:09:20;12.50;90.50
26099;DHT22;13860;52.370;6.764;2023-11-19T18:12:30;12.40;90.40
26099;DHT22;13860;52.370;6.764;2023-11-19T18:15:36;12.40;90.40
26099;DHT22;13860;52.370;6.764;2023-11-19T18:18:43;12.50;90.50
26099;DHT22;13860;52.370;6.764;2023-11-19T18:21:49;12.50;90.50
26099;DHT22;13860;52.370;6.764;2023-11-19T18:24:57;12.40;90.40
26099;DHT22;13860;52.370;6.764;2023-11-19T18:28:05;12.40;90.40
26099;DHT22;13860;52.370;6.764;2023-11-19T18:31:13;12.50;90.50
26099;DHT22;13860;52.370;6.764;2023-11-19T18:34:18;12.40;90.50
26099;DHT22;13860;52.370;6.764;2023-11-19T18:37:26;12.40;90.50
26099;DHT22;13860;52.370;6.764;2023-11-19T18:40:31;12.40;90.50
26099;DHT22;13860;52.370;6.764;2023-11-19T18:43:41;12.40;90.50
26099;DHT22;13860;52.370;6.764;2023-11-19T18:46:47;12.40;90.50
26099;DHT22;13860;52.370;6.764;2023-11-19T18:49:54;12.40;90.50
26099;DHT22;13860;52.370;6.764;2023-11-19T18:53:00;12.40;90.60
26099;DHT22;13860;52.370;6.764;2023-11-19T18:56:07;12.40;90.60
26099;DHT22;13860;52.370;6.764;2023-11-19T18:59:16;12.40;90.50
26099;DHT22;13860;52.370;6.764;2023-11-19T19:02:26;12.40;90.50
26099;DHT22;13860;52.370;6.764;2023-11-19T19:05:32;12.40;90.50
26099;DHT22;13860;52.370;6.764;2023-11-19T19:08:39;12.40;90.60
26099;DHT22;13860;52.370;6.764;2023-11-19T19:11:46;12.40;90.60
26099;DHT22;13860;52.370;6.764;2023-11-19T19:14:57;12.40;90.60
26099;DHT22;13860;52.370;6.764;2023-11-19T19:18:06;12.40;90.60
26099;DHT22;13860;52.370;6.764;2023-11-19T19:21:14;12.30;90.60
26099;DHT22;13860;52.370;6.764;2023-11-19T19:24:19;12.40;90.60
26099;DHT22;13860;52.370;6.764;2023-11-19T19:27:27;12.40;90.70
26099;DHT22;13860;52.370;6.764;2023-11-19T19:30:36;12.40;90.70
26099;DHT22;13860;52.370;6.764;2023-11-19T19:33:43;12.40;90.70
26099;DHT22;13860;52.370;6.764;2023-11-19T19:36:55;12.30;90.70
26099;DHT22;13860;52.370;6.764;2023-11-19T19:40:02;12.30;90.70
26099;DHT22;13860;52.370;6.764;2023-11-19T19:43:28;12.30;90.70
26099;DHT22;13860;52.370;6.764;2023-11-19T19:46:38;12.30;90.70
26099;DHT22;13860;52.370;6.764;2023-11-19T19:49:44;12.30;90.70